»·PEaware :: N647WT KSMX-KBFL

N647WT :: KSMX-KBFL

FLIGHT INFORMATION

Flight Status: Arrived
Operator: Privately registered:
United States
More flights under this callsign
Pilot: Chris Beckett (15698)
Aircraft: ECLIPSE 500
(EA50)
More flights by this aircraft type
Origin: KSMX Santa Maria Pub/Capt Hancock
United States
Destination: KBFL Meadows
United States
More flights between these airports :: More routes between these airports
Route:
File this flight plan on PilotEdge
Remarks:
Altitude:
(Current/Filed)
5,500ft
Speed:
(Current/Filed)
180kts
Departed: 18-Jun-17 08:17 PM
Arrived: 18-Jun-17 08:46 PM
Distance/Time
Traveled:
76nm/0:29
Distance/Time
To Go:
Arrived

Flight Plot

Page will automatically refresh every two minutes.

Flight plan parsing failed; only flown route is shown


Map Options




Map Legend


Flown Route
Filed Route
Departure Airport
Arrival Airport
Navaid (VOR, NDB)
Fix

Horizontal Profiles

Position Reports

Time Latitude Longitude Heading Altitude Ground
Speed
18-Jun-17 20:00 34.904612 -120.454267 228 264ft 0kts
18-Jun-17 20:01 34.904612 -120.454267 228 264ft 0kts
18-Jun-17 20:02 34.904612 -120.454267 228 264ft 0kts
18-Jun-17 20:03 34.904612 -120.454267 228 264ft 0kts
18-Jun-17 20:04 34.904612 -120.454267 228 264ft 0kts
18-Jun-17 20:05 34.904612 -120.454267 228 264ft 0kts
18-Jun-17 20:06 34.904612 -120.454267 228 264ft 0kts
18-Jun-17 20:07 34.904612 -120.454267 228 264ft 0kts
18-Jun-17 20:08 34.904612 -120.454267 228 264ft 0kts
18-Jun-17 20:09 34.904612 -120.454267 228 264ft 0kts
18-Jun-17 20:10 34.904612 -120.454267 228 264ft 0kts
18-Jun-17 20:11 34.903719 -120.455853 238 264ft 2kts
18-Jun-17 20:12 34.900813 -120.452896 135 264ft 22kts
18-Jun-17 20:13 34.896346 -120.447602 137 264ft 16kts
18-Jun-17 20:14 34.894572 -120.445525 148 264ft 5kts
18-Jun-17 20:15 34.893731 -120.445384 181 264ft 0kts
18-Jun-17 20:16 34.893731 -120.445384 181 264ft 0kts
18-Jun-17 20:17 34.893731 -120.445384 181 264ft 0kts
18-Jun-17 20:18 34.893443 -120.446671 312 264ft 28kts
18-Jun-17 20:19 34.912815 -120.471345 312 544ft 118kts
18-Jun-17 20:20 34.932889 -120.495135 323 1369ft 106kts
18-Jun-17 20:21 34.964467 -120.497498 33 1438ft 127kts
18-Jun-17 20:22 34.990017 -120.467657 63 1672ft 135kts
18-Jun-17 20:23 34.988447 -120.417244 94 1689ft 187kts
18-Jun-17 20:24 34.984132 -120.352035 94 2948ft 197kts
18-Jun-17 20:25 34.986377 -120.284948 79 4183ft 202kts
18-Jun-17 20:26 35.001280 -120.217930 71 5329ft 208kts
18-Jun-17 20:27 35.022006 -120.151998 68 5494ft 210kts
18-Jun-17 20:28 35.045306 -120.086405 67 5490ft 211kts
18-Jun-17 20:29 35.069540 -120.021275 66 5488ft 211kts
18-Jun-17 20:31 35.094163 -119.956239 66 5488ft 211kts
18-Jun-17 20:32 35.117868 -119.894043 66 5580ft 212kts
18-Jun-17 20:33 35.142585 -119.829279 66 5585ft 212kts
18-Jun-17 20:34 35.167522 -119.763978 67 6075ft 213kts
18-Jun-17 20:35 35.192430 -119.698545 67 6562ft 216kts
18-Jun-17 20:36 35.217017 -119.633692 66 6542ft 214kts
18-Jun-17 20:37 35.242097 -119.567593 66 6516ft 216kts
18-Jun-17 20:38 35.267416 -119.500758 66 6500ft 217kts
18-Jun-17 20:39 35.292675 -119.433925 66 6500ft 217kts
18-Jun-17 20:40 35.318034 -119.366675 66 6500ft 217kts
18-Jun-17 20:41 35.340357 -119.307429 67 6496ft 182kts
18-Jun-17 20:42 35.361513 -119.250949 66 5746ft 182kts
18-Jun-17 20:43 35.382343 -119.195260 65 4730ft 178kts
18-Jun-17 20:44 35.402473 -119.141456 63 3534ft 170kts
18-Jun-17 20:45 35.421142 -119.087796 86 1704ft 196kts
18-Jun-17 20:46 35.397276 -119.044674 134 1513ft 137kts
18-Jun-17 20:47 35.397502 -119.009137 22 1487ft 123kts
18-Jun-17 20:48 35.417974 -119.036682 307 766ft 118kts
18-Jun-17 20:49 35.433572 -119.055790 315 509ft 32kts
18-Jun-17 20:50 35.436297 -119.057633 72 509ft 6kts
18-Jun-17 20:51 35.434878 -119.055200 137 509ft 14kts
18-Jun-17 20:52 35.432714 -119.052575 133 509ft 0kts
18-Jun-17 20:53 35.426878 -119.045531 134 509ft 2kts
18-Jun-17 20:54 35.426387 -119.044934 121 509ft 9kts
18-Jun-17 20:55 35.427005 -119.044422 24 509ft 2kts
18-Jun-17 20:56 35.427324 -119.044180 37 509ft 0kts
18-Jun-17 20:57 35.427324 -119.044180 37 509ft 0kts

Navigation Log

Ident Type
Flight plan parsing failed, navigation log unavailable